createdAt,value
2022-08-07T00:00:44.322Z,81.8
2022-08-07T00:02:00.633Z,81.6
2022-08-07T00:03:16.922Z,81.2
2022-08-07T00:04:33.203Z,81
2022-08-07T00:05:49.496Z,81.6
2022-08-07T00:07:05.792Z,81.7
2022-08-07T00:08:22.093Z,81.4
2022-08-07T00:09:38.378Z,81.2
2022-08-07T00:10:54.662Z,81.2
2022-08-07T00:12:10.965Z,81.3
2022-08-07T00:13:26.265Z,81.6
2022-08-07T00:14:42.556Z,81.5
2022-08-07T00:15:58.854Z,81.7
2022-08-07T00:17:15.146Z,82.2
2022-08-07T00:18:31.439Z,82.5
2022-08-07T00:19:47.738Z,83
2022-08-07T00:21:04.043Z,84.2
2022-08-07T00:22:20.312Z,86.7
2022-08-07T00:23:36.602Z,88.1
2022-08-07T00:24:52.904Z,89.3
2022-08-07T00:26:09.201Z,89.9
2022-08-07T00:27:25.503Z,89.8
2022-08-07T00:28:41.783Z,90.3
2022-08-07T00:29:57.087Z,91.1
2022-08-07T00:31:13.380Z,91.3
2022-08-07T00:32:29.679Z,91.5
2022-08-07T00:33:45.961Z,91.4
2022-08-07T00:35:02.257Z,91.3
2022-08-07T00:36:18.556Z,91.2
2022-08-07T00:37:34.839Z,91.1
2022-08-07T00:38:51.131Z,91.1
2022-08-07T00:40:07.437Z,91
2022-08-07T00:41:23.729Z,90.4
2022-08-07T00:42:40.008Z,89.9
2022-08-07T00:43:56.310Z,89.5
2022-08-07T00:45:12.613Z,89
2022-08-07T00:46:27.916Z,88.1
2022-08-07T00:47:44.207Z,87.5
2022-08-07T00:49:00.488Z,87
2022-08-07T00:50:16.801Z,86.7
2022-08-07T00:51:33.095Z,86
2022-08-07T00:52:49.380Z,85.7
2022-08-07T00:54:05.686Z,85.3
2022-08-07T00:55:21.961Z,85.2
2022-08-07T00:56:38.255Z,85
2022-08-07T00:57:54.554Z,85.3
2022-08-07T00:59:10.837Z,85.4
2022-08-07T01:00:27.124Z,85.8
2022-08-07T01:01:43.419Z,85.1
2022-08-07T01:02:58.737Z,85
2022-08-07T01:04:15.039Z,86.3
2022-08-07T01:05:31.332Z,87
2022-08-07T01:06:47.611Z,87.7
2022-08-07T01:08:03.908Z,88.2
2022-08-07T01:09:20.190Z,88.5
2022-08-07T01:10:35.501Z,88.2
2022-08-07T01:11:51.805Z,88.2
2022-08-07T01:13:08.094Z,88.1
2022-08-07T01:14:24.392Z,88.4
2022-08-07T01:15:40.688Z,88.5
2022-08-07T01:16:56.967Z,88.5
2022-08-07T01:18:13.263Z,88.8
2022-08-07T01:19:29.561Z,88.8
2022-08-07T01:20:45.846Z,88.4
2022-08-07T01:22:02.140Z,87.9
2022-08-07T01:23:18.439Z,87.4
2022-08-07T01:24:34.721Z,86.8
2022-08-07T01:25:51.029Z,86.5
2022-08-07T01:27:06.322Z,86.2
2022-08-07T01:28:22.628Z,86
2022-08-07T01:29:38.915Z,86.1
2022-08-07T01:30:55.208Z,86.1
2022-08-07T01:32:11.490Z,86.2
2022-08-07T01:33:27.803Z,86.2
2022-08-07T01:34:44.089Z,86.3
2022-08-07T01:36:00.373Z,86.2
2022-08-07T01:37:16.664Z,86.3
2022-08-07T01:38:32.968Z,86
2022-08-07T01:39:49.268Z,86
2022-08-07T01:41:05.553Z,86.5
2022-08-07T01:42:21.844Z,86.2
2022-08-07T01:43:37.160Z,86.6
2022-08-07T01:44:53.433Z,87.6
2022-08-07T01:46:09.729Z,88.4
2022-08-07T01:47:26.019Z,89.9
2022-08-07T01:48:42.323Z,89.1
2022-08-07T01:49:58.625Z,89.1
2022-08-07T01:51:14.911Z,89.1
2022-08-07T01:52:31.203Z,88.5
2022-08-07T01:53:47.501Z,88.1
2022-08-07T01:55:03.803Z,87.5
2022-08-07T01:56:20.077Z,88
2022-08-07T01:57:36.374Z,88.5
2022-08-07T01:58:52.656Z,89.1
2022-08-07T02:00:07.978Z,88.6
2022-08-07T02:01:24.269Z,89
2022-08-07T02:02:40.566Z,89
2022-08-07T02:03:56.844Z,88.8
2022-08-07T02:05:13.140Z,88.4
2022-08-07T02:06:29.441Z,88.3
2022-08-07T02:07:45.740Z,88
2022-08-07T02:09:02.028Z,87.4
2022-08-07T02:10:18.313Z,87.7
2022-08-07T02:11:34.606Z,87.5
2022-08-07T02:12:50.908Z,87.5
2022-08-07T02:14:07.196Z,87.3
2022-08-07T02:15:23.495Z,86.6
2022-08-07T02:16:38.795Z,86.3
2022-08-07T02:17:55.091Z,87
2022-08-07T02:19:11.370Z,87.6
2022-08-07T02:20:27.689Z,87.6
2022-08-07T02:21:43.961Z,86.5
2022-08-07T02:23:00.265Z,87.1
2022-08-07T02:24:16.544Z,86.9
2022-08-07T02:25:32.854Z,86.8
2022-08-07T02:26:49.135Z,86.8
2022-08-07T02:28:05.438Z,87.4
2022-08-07T02:29:21.719Z,87.3
2022-08-07T02:30:38.028Z,86.8
2022-08-07T02:31:54.306Z,86.4
2022-08-07T02:33:09.638Z,86.5
2022-08-07T02:34:25.919Z,86.3
2022-08-07T02:35:42.197Z,85.7
2022-08-07T02:36:58.501Z,84.8
2022-08-07T02:38:14.785Z,84.5
2022-08-07T02:39:31.087Z,83.6
2022-08-07T02:40:47.384Z,84.5
2022-08-07T02:42:03.672Z,83.3
2022-08-07T02:43:19.965Z,83.2
2022-08-07T02:44:36.243Z,84
2022-08-07T02:45:52.557Z,84.3
2022-08-07T02:47:08.846Z,83.1
2022-08-07T02:48:25.132Z,82.9
2022-08-07T02:49:40.450Z,84
2022-08-07T02:52:13.032Z,82.8
2022-08-07T02:53:29.314Z,82.2
2022-08-07T02:54:45.621Z,83
2022-08-07T02:56:01.910Z,82.1
2022-08-07T02:57:18.206Z,81.7
2022-08-07T02:58:34.494Z,83.1
2022-08-07T02:59:50.793Z,82.5
2022-08-07T03:01:07.078Z,81.7
2022-08-07T03:02:23.368Z,81.7
2022-08-07T03:03:39.661Z,82.8
2022-08-07T03:04:55.965Z,82.6
2022-08-07T03:06:11.275Z,82.7
2022-08-07T03:07:27.510Z,80.8
2022-08-07T03:08:43.816Z,79.6
2022-08-07T03:10:00.094Z,79.9
2022-08-07T03:11:16.334Z,80.3
2022-08-07T03:12:32.586Z,80.6
2022-08-07T03:13:48.876Z,81.7
2022-08-07T03:15:05.166Z,82.5
2022-08-07T03:16:21.457Z,83.4
2022-08-07T03:17:37.712Z,84
2022-08-07T03:18:53.945Z,83.6
2022-08-07T03:20:10.244Z,84.2
2022-08-07T03:21:26.534Z,85
2022-08-07T03:22:41.790Z,85.4
2022-08-07T03:23:58.031Z,85.6
2022-08-07T03:25:14.271Z,85.6
2022-08-07T03:26:30.515Z,85.7
2022-08-07T03:27:46.764Z,85.9
2022-08-07T03:29:02.993Z,85.7
2022-08-07T03:30:19.242Z,85.6
2022-08-07T03:31:35.470Z,85.3
2022-08-07T03:32:51.709Z,85.2
2022-08-07T03:34:07.940Z,85
2022-08-07T03:35:24.193Z,84.8
2022-08-07T03:36:40.431Z,84.8
2022-08-07T03:37:56.665Z,84.8
2022-08-07T03:39:11.915Z,84.9
2022-08-07T03:40:28.159Z,84.8
2022-08-07T03:41:44.392Z,84.8
2022-08-07T03:43:00.636Z,84.7
2022-08-07T03:44:16.892Z,84.7
2022-08-07T03:45:33.114Z,84.5
2022-08-07T03:46:49.361Z,84.8
2022-08-07T03:48:05.602Z,84.9
2022-08-07T03:49:21.850Z,85.1
2022-08-07T03:50:38.070Z,85.5
2022-08-07T03:51:54.308Z,85.4
2022-08-07T03:53:10.551Z,85.8
2022-08-07T03:54:26.805Z,85.9
2022-08-07T03:55:42.042Z,85.8
2022-08-07T03:56:58.284Z,85.6
2022-08-07T03:58:14.525Z,85.5
2022-08-07T03:59:30.766Z,85.1
2022-08-07T04:00:47.008Z,85
2022-08-07T04:02:03.248Z,85
2022-08-07T04:03:19.489Z,85
2022-08-07T04:04:35.714Z,85.3
2022-08-07T04:05:51.960Z,84.8
2022-08-07T04:07:08.199Z,85
2022-08-07T04:08:24.435Z,84.7
2022-08-07T04:09:40.684Z,84.5
2022-08-07T04:10:56.910Z,84.7
2022-08-07T04:12:12.165Z,84.7
2022-08-07T04:13:28.403Z,84.5
2022-08-07T04:14:44.646Z,84.4
2022-08-07T04:16:00.906Z,84.7
2022-08-07T04:17:17.129Z,84.8
2022-08-07T04:18:33.370Z,85
2022-08-07T04:19:49.605Z,85
2022-08-07T04:21:05.847Z,84.4
2022-08-07T04:22:22.101Z,84.8
2022-08-07T04:23:38.326Z,84.8
2022-08-07T04:24:54.572Z,85
2022-08-07T04:26:10.800Z,84.8
2022-08-07T04:27:27.047Z,84.7
2022-08-07T04:28:42.293Z,84.5
2022-08-07T04:29:58.556Z,83.9
2022-08-07T04:31:14.785Z,84.1
2022-08-07T04:32:31.008Z,84
2022-08-07T04:33:47.262Z,84.1
2022-08-07T04:35:03.510Z,83.9
2022-08-07T04:36:19.732Z,84
2022-08-07T04:37:35.975Z,84.5
2022-08-07T04:38:52.212Z,84.8
2022-08-07T04:40:08.451Z,84.5
2022-08-07T04:41:24.696Z,84.2
2022-08-07T04:42:40.947Z,84.3
2022-08-07T04:43:57.171Z,84.4
2022-08-07T04:45:12.428Z,83.8
2022-08-07T04:46:28.675Z,83.2
2022-08-07T04:47:44.911Z,82.9
2022-08-07T04:49:01.135Z,83.2
2022-08-07T04:50:17.387Z,83.1
2022-08-07T04:51:33.619Z,83.2
2022-08-07T04:52:49.867Z,83.6
2022-08-07T04:54:06.099Z,83.4
2022-08-07T04:55:22.344Z,83.6
2022-08-07T04:56:38.587Z,83.5
2022-08-07T04:57:54.820Z,83.6
2022-08-07T04:59:11.056Z,83.7
2022-08-07T05:00:27.307Z,83.5
2022-08-07T05:01:42.555Z,83.4
2022-08-07T05:02:58.806Z,83.5
2022-08-07T05:04:15.040Z,84.1
2022-08-07T05:05:31.278Z,84.1
2022-08-07T05:06:47.515Z,84.2
2022-08-07T05:08:03.760Z,83.9
2022-08-07T05:09:19.994Z,84.1
2022-08-07T05:10:36.226Z,83.5
2022-08-07T05:11:52.468Z,83.3
2022-08-07T05:13:08.710Z,82.8
2022-08-07T05:14:24.952Z,83.7
2022-08-07T05:15:41.176Z,84
2022-08-07T05:16:57.444Z,84.1
2022-08-07T05:18:12.673Z,82.7
2022-08-07T05:19:28.920Z,83.5
2022-08-07T05:20:45.156Z,83.7
2022-08-07T05:22:01.392Z,83.8
2022-08-07T05:23:17.632Z,82.3
2022-08-07T05:24:33.878Z,82.3
2022-08-07T05:25:49.129Z,82.1
2022-08-07T05:27:05.382Z,81
2022-08-07T05:28:21.619Z,79.4
2022-08-07T05:29:37.858Z,79.6
2022-08-07T05:30:54.104Z,81.4
2022-08-07T05:32:10.343Z,81.5
2022-08-07T05:33:26.576Z,81.1
2022-08-07T05:34:42.818Z,79.9
2022-08-07T05:35:59.056Z,79.4
2022-08-07T05:37:15.298Z,79.3
2022-08-07T05:38:31.531Z,79.9
2022-08-07T05:39:47.771Z,79.3
2022-08-07T05:41:04.019Z,78.2
2022-08-07T05:42:19.262Z,78.1
2022-08-07T05:43:35.492Z,78.2
2022-08-07T05:44:51.751Z,79.5
2022-08-07T05:46:07.993Z,76.1
2022-08-07T05:47:24.221Z,74.8
2022-08-07T05:48:40.460Z,76.4
2022-08-07T05:49:56.690Z,76.5
2022-08-07T05:52:29.171Z,76.7
2022-08-07T05:53:45.406Z,73.7
2022-08-07T05:55:01.657Z,73.3
2022-08-07T05:56:17.895Z,76.2
2022-08-07T05:57:34.133Z,74.6
2022-08-07T05:58:49.389Z,73
2022-08-07T06:00:05.620Z,74.6
2022-08-07T06:01:21.864Z,73.8
2022-08-07T06:02:38.090Z,74.6
2022-08-07T06:03:54.335Z,73.7
2022-08-07T06:05:10.579Z,73.4
2022-08-07T06:06:26.831Z,72.6
2022-08-07T06:07:43.060Z,71.7
2022-08-07T06:08:59.300Z,71.3
2022-08-07T06:10:15.557Z,70.3
2022-08-07T06:11:31.778Z,71.3
2022-08-07T06:12:48.016Z,71.1
2022-08-07T06:14:04.241Z,69.8
2022-08-07T06:15:19.518Z,70.3
2022-08-07T06:16:35.733Z,69.9
2022-08-07T06:17:51.997Z,69.6
2022-08-07T06:19:08.224Z,69.3
2022-08-07T06:20:24.468Z,70
2022-08-07T06:21:40.700Z,70.7
2022-08-07T06:22:56.941Z,70
2022-08-07T06:24:13.165Z,71.1
2022-08-07T06:25:29.422Z,70.7
2022-08-07T06:26:45.656Z,69.3
2022-08-07T06:28:01.885Z,69.4
2022-08-07T06:30:34.359Z,69.3
2022-08-07T06:31:49.628Z,68.8
2022-08-07T06:33:05.857Z,68.3
2022-08-07T06:34:22.104Z,68.5
2022-08-07T06:35:38.333Z,69.1
2022-08-07T06:36:54.583Z,67.7
2022-08-07T06:38:10.810Z,67.2
2022-08-07T06:39:27.051Z,68.8
2022-08-07T06:40:43.287Z,67.7
2022-08-07T06:41:59.540Z,67.3
2022-08-07T06:43:15.775Z,66.8
2022-08-07T06:44:32.025Z,66.2
2022-08-07T06:45:48.238Z,65.9
2022-08-07T06:47:04.490Z,66.2
2022-08-07T06:48:19.746Z,66.6
2022-08-07T06:49:35.994Z,65.1
2022-08-07T06:50:52.220Z,64.7
2022-08-07T06:52:08.466Z,64.6
2022-08-07T06:53:24.689Z,64.6
2022-08-07T06:54:40.934Z,63.2
2022-08-07T06:55:57.178Z,63.1
2022-08-07T06:57:13.407Z,62.9
2022-08-07T06:58:29.649Z,61.3
2022-08-07T06:59:45.888Z,61.5
2022-08-07T07:01:02.123Z,61.4
2022-08-07T07:02:18.372Z,63.1
2022-08-07T07:03:34.610Z,62.1
2022-08-07T07:04:49.871Z,61.4
2022-08-07T07:06:06.092Z,61.3
2022-08-07T07:07:22.344Z,61.2
2022-08-07T07:08:38.587Z,61.9
2022-08-07T07:09:54.827Z,61.1
2022-08-07T07:11:11.067Z,60.3
2022-08-07T07:12:27.284Z,61.3
2022-08-07T07:13:43.523Z,60
2022-08-07T07:14:59.789Z,59.7
2022-08-07T07:16:16.028Z,60.9
2022-08-07T07:17:32.246Z,60.7
2022-08-07T07:18:48.489Z,59.7
2022-08-07T07:20:04.728Z,60.5
2022-08-07T07:21:19.986Z,61.6
2022-08-07T07:22:36.228Z,59.2
2022-08-07T07:23:52.473Z,59.4
2022-08-07T07:25:08.707Z,58.4
2022-08-07T07:26:24.929Z,59.3
2022-08-07T07:27:41.181Z,58
2022-08-07T07:28:57.420Z,58.9
2022-08-07T07:30:13.655Z,58.8
2022-08-07T07:31:29.887Z,58
2022-08-07T07:32:46.126Z,58.8
2022-08-07T07:34:02.363Z,58.8
2022-08-07T07:35:18.606Z,57.9
2022-08-07T07:36:34.847Z,55.5
2022-08-07T07:37:50.099Z,55.7
2022-08-07T07:39:06.343Z,55
2022-08-07T07:40:22.581Z,57.4
2022-08-07T07:41:38.814Z,55.9
2022-08-07T07:42:55.064Z,56.5
2022-08-07T07:44:11.304Z,56.1
2022-08-07T07:45:27.543Z,55
2022-08-07T07:46:43.775Z,55
2022-08-07T07:48:00.008Z,56.2
2022-08-07T07:49:16.267Z,54.6
2022-08-07T07:50:32.490Z,55.1
2022-08-07T07:51:48.731Z,53.6
2022-08-07T07:53:04.979Z,57.8
2022-08-07T07:54:20.227Z,54.2
2022-08-07T07:55:36.466Z,53.2
2022-08-07T07:56:52.717Z,53.5
2022-08-07T07:58:08.966Z,53.1
2022-08-07T07:59:25.183Z,52.9
2022-08-07T08:00:41.421Z,51.6
2022-08-07T08:01:57.662Z,51.7
2022-08-07T08:03:13.916Z,50.9
2022-08-07T08:04:30.143Z,51.8
2022-08-07T08:05:46.396Z,51.3
2022-08-07T08:07:02.624Z,51.1
2022-08-07T08:08:18.865Z,52.1
2022-08-07T08:09:35.102Z,50.1
2022-08-07T08:10:50.352Z,51.5
2022-08-07T08:12:06.000Z,50.5
2022-08-07T08:13:22.833Z,51.9
2022-08-07T08:14:39.071Z,52.3
2022-08-07T08:15:55.329Z,50
2022-08-07T08:17:11.563Z,50.8
2022-08-07T08:18:27.795Z,49.5
2022-08-07T08:19:44.040Z,49.6
2022-08-07T08:21:00.281Z,46.2
2022-08-07T08:22:16.527Z,46.5
2022-08-07T08:23:32.772Z,46.5
2022-08-07T08:24:49.019Z,44.6
2022-08-07T08:26:05.248Z,44.3
2022-08-07T08:27:20.505Z,44.4
2022-08-07T08:28:36.738Z,44
2022-08-07T08:29:52.976Z,45.6
2022-08-07T08:31:09.225Z,46.1
2022-08-07T08:32:25.445Z,44
2022-08-07T08:33:41.700Z,45.2
2022-08-07T08:34:57.950Z,46.4
2022-08-07T08:36:14.180Z,43
2022-08-07T08:37:30.424Z,43.5
2022-08-07T08:38:46.647Z,44.9
2022-08-07T08:40:02.895Z,43.8
2022-08-07T08:41:19.129Z,44.5
2022-08-07T08:42:35.371Z,43.9
2022-08-07T08:43:50.631Z,43.8
2022-08-07T08:45:06.871Z,44.4
2022-08-07T08:46:23.104Z,43.8
2022-08-07T08:47:39.348Z,42.8
2022-08-07T08:48:55.590Z,44.4
2022-08-07T08:50:11.836Z,42.8
2022-08-07T08:51:28.061Z,42.3
2022-08-07T08:52:44.306Z,41.7
2022-08-07T08:54:00.541Z,43.1
2022-08-07T08:55:16.786Z,44.1
2022-08-07T08:56:33.028Z,44
2022-08-07T08:57:49.262Z,44.8
2022-08-07T08:59:05.516Z,44.8
2022-08-07T09:00:20.772Z,39.5
2022-08-07T09:01:37.016Z,41.9
2022-08-07T09:02:53.249Z,41.1
2022-08-07T09:04:09.494Z,45.2
2022-08-07T09:05:25.726Z,44.7
2022-08-07T09:06:41.974Z,44.6
2022-08-07T09:07:58.213Z,45.6
2022-08-07T09:09:14.449Z,44.4
2022-08-07T09:10:30.693Z,42.9
2022-08-07T09:11:46.922Z,42.4
2022-08-07T09:13:03.162Z,42.4
2022-08-07T09:14:19.415Z,41.8
2022-08-07T09:15:35.650Z,41.9
2022-08-07T09:16:50.919Z,42.4
2022-08-07T09:18:07.143Z,43.8
2022-08-07T09:19:23.382Z,47.9
2022-08-07T09:20:39.626Z,44.7
2022-08-07T09:21:55.876Z,43.7
2022-08-07T09:23:12.104Z,45.3
2022-08-07T09:24:28.351Z,41.8
2022-08-07T09:25:44.581Z,41
2022-08-07T09:27:00.823Z,42.4
2022-08-07T09:28:17.067Z,41.4
2022-08-07T09:29:33.303Z,41.3
2022-08-07T09:30:49.550Z,41.4
2022-08-07T09:32:05.797Z,45.2
2022-08-07T09:33:21.038Z,45.5
2022-08-07T09:34:37.295Z,43
2022-08-07T09:35:53.522Z,43.9
2022-08-07T09:37:09.763Z,42
2022-08-07T09:38:25.998Z,43.9
2022-08-07T09:39:42.255Z,43.1
2022-08-07T09:40:57.508Z,42.9
2022-08-07T09:42:13.754Z,42.3
2022-08-07T09:43:29.987Z,39.8
2022-08-07T09:44:46.239Z,43.5
2022-08-07T09:46:02.467Z,41.5
2022-08-07T09:47:18.717Z,40.1
2022-08-07T09:48:34.961Z,40.6
2022-08-07T09:49:51.190Z,42.1
2022-08-07T09:51:07.433Z,40.7
2022-08-07T09:52:23.676Z,38.9
2022-08-07T09:53:39.925Z,39.9
2022-08-07T09:54:56.164Z,40.3
2022-08-07T09:56:12.394Z,35.9
2022-08-07T09:57:27.656Z,37.4
2022-08-07T09:58:43.901Z,38.5
2022-08-07T10:00:00.123Z,36.5
2022-08-07T10:01:16.366Z,36.5
2022-08-07T10:02:32.616Z,38.7
2022-08-07T10:03:48.848Z,37.7
2022-08-07T10:05:05.082Z,36.5
2022-08-07T10:06:21.327Z,37.2
2022-08-07T10:07:37.560Z,36.9
2022-08-07T10:08:53.805Z,38
2022-08-07T10:10:10.053Z,41
2022-08-07T10:11:26.289Z,38.8
2022-08-07T10:12:42.529Z,37.5
2022-08-07T10:13:57.785Z,38.4
2022-08-07T10:15:14.027Z,38.3
2022-08-07T10:16:30.259Z,38.5
2022-08-07T10:17:46.509Z,36.1
2022-08-07T10:19:02.740Z,39.7
2022-08-07T10:20:18.983Z,36.7
2022-08-07T10:21:35.226Z,36.3
2022-08-07T10:22:51.466Z,36.2
2022-08-07T10:24:07.691Z,35.2
2022-08-07T10:25:23.932Z,34.1
2022-08-07T10:26:40.177Z,37.4
2022-08-07T10:27:56.422Z,37
2022-08-07T10:29:12.651Z,35
2022-08-07T10:30:27.920Z,36.4
2022-08-07T10:31:44.160Z,36.8
2022-08-07T10:33:00.384Z,37.4
2022-08-07T10:34:16.624Z,36.1
2022-08-07T10:35:32.861Z,34.3
2022-08-07T10:36:49.115Z,33
2022-08-07T10:38:05.345Z,34.4
2022-08-07T10:39:21.584Z,31.9
2022-08-07T10:40:37.834Z,31.4
2022-08-07T10:41:54.070Z,31.7
2022-08-07T10:43:10.304Z,35.3
2022-08-07T10:44:26.535Z,32.7
2022-08-07T10:45:42.794Z,35.3
2022-08-07T10:46:58.050Z,33.7
2022-08-07T10:48:14.283Z,36.1
2022-08-07T10:49:30.517Z,37.5
2022-08-07T10:50:46.765Z,31.3
2022-08-07T10:52:03.000Z,32.1
2022-08-07T10:53:19.236Z,30.4
2022-08-07T10:54:35.465Z,30.8
2022-08-07T10:55:51.709Z,34.8
2022-08-07T10:57:07.946Z,30.8
2022-08-07T10:58:24.183Z,35.9
2022-08-07T10:59:40.424Z,34.4
2022-08-07T11:00:56.666Z,33.8
2022-08-07T11:02:12.904Z,33.3
2022-08-07T11:03:28.161Z,31.1
2022-08-07T11:04:44.387Z,32.4
2022-08-07T11:06:00.629Z,32.9
2022-08-07T11:07:16.879Z,32.4
2022-08-07T11:08:33.103Z,33.2
2022-08-07T11:09:49.343Z,34.2
2022-08-07T11:11:05.581Z,34.6
2022-08-07T11:12:21.824Z,30.2
2022-08-07T11:13:38.072Z,32.5
2022-08-07T11:14:54.304Z,35.3
2022-08-07T11:16:10.542Z,34
2022-08-07T11:17:26.773Z,31.3
2022-08-07T11:18:43.012Z,31.5
2022-08-07T11:19:58.266Z,31.3
2022-08-07T11:21:14.516Z,33.8
2022-08-07T11:22:30.749Z,30.5
2022-08-07T11:23:46.986Z,29.8
2022-08-07T11:25:03.223Z,31
2022-08-07T11:26:19.463Z,36.1
2022-08-07T11:27:35.700Z,32
2022-08-07T11:28:51.948Z,33.6
2022-08-07T11:30:08.179Z,30.9
2022-08-07T11:31:24.420Z,32.9
2022-08-07T11:32:40.653Z,32.7
2022-08-07T11:33:56.893Z,34.8
2022-08-07T11:35:13.127Z,30.5
2022-08-07T11:36:28.399Z,31.4
2022-08-07T11:37:44.625Z,31.7
2022-08-07T11:39:00.867Z,31.7
2022-08-07T11:40:17.103Z,29.8
2022-08-07T11:41:33.350Z,28.2
2022-08-07T11:42:49.581Z,29.3
2022-08-07T11:44:05.815Z,29.3
2022-08-07T11:45:22.055Z,31.4
2022-08-07T11:46:38.308Z,29.6
2022-08-07T11:47:54.536Z,31.5
2022-08-07T11:49:10.775Z,29.4
2022-08-07T11:50:27.017Z,30.2
2022-08-07T11:51:43.265Z,31.8
2022-08-07T11:52:58.519Z,29.7
2022-08-07T11:54:14.761Z,30.1
2022-08-07T11:55:30.993Z,30.8
2022-08-07T11:56:47.223Z,31.2
2022-08-07T11:58:03.469Z,35.4
2022-08-07T11:59:19.707Z,36.8
2022-08-07T12:00:35.951Z,31.5
2022-08-07T12:01:52.183Z,33.2
2022-08-07T12:03:08.419Z,30.6
2022-08-07T12:04:24.663Z,29.2
2022-08-07T12:05:40.900Z,28.4
2022-08-07T12:06:57.149Z,28.5
2022-08-07T12:08:13.373Z,29
2022-08-07T12:09:28.635Z,31.9
2022-08-07T12:10:44.883Z,30.3
2022-08-07T12:12:01.109Z,31.7
2022-08-07T12:13:17.345Z,29
2022-08-07T12:14:33.593Z,27.4
2022-08-07T12:15:49.832Z,28.4
2022-08-07T12:17:06.073Z,29.6
2022-08-07T12:18:22.312Z,29.4
2022-08-07T12:19:38.553Z,32
2022-08-07T12:20:54.797Z,30
2022-08-07T12:22:11.018Z,29
2022-08-07T12:23:27.262Z,29.6
2022-08-07T12:24:43.500Z,29
2022-08-07T12:25:58.760Z,29
2022-08-07T12:27:15.006Z,29.8
2022-08-07T12:28:31.233Z,27.2
2022-08-07T12:29:47.482Z,27.8
2022-08-07T12:31:03.718Z,27.2
2022-08-07T12:32:19.959Z,30.3
2022-08-07T12:33:36.206Z,26.6
2022-08-07T12:34:52.439Z,29.9
2022-08-07T12:36:08.672Z,27
2022-08-07T12:37:24.908Z,26.3
2022-08-07T12:38:41.160Z,30
2022-08-07T12:39:57.389Z,28.9
2022-08-07T12:41:13.637Z,28.6
2022-08-07T12:42:28.889Z,30.3
2022-08-07T12:43:45.127Z,28
2022-08-07T12:45:01.364Z,28.7
2022-08-07T12:46:17.607Z,28.4
2022-08-07T12:47:33.849Z,26
2022-08-07T12:48:50.087Z,26.5
2022-08-07T12:50:06.335Z,26.7
2022-08-07T12:51:22.580Z,27.3
2022-08-07T12:52:38.812Z,27.1
2022-08-07T12:53:55.039Z,27.1
2022-08-07T12:55:11.284Z,27.8
2022-08-07T12:56:27.529Z,28.8
2022-08-07T12:57:43.767Z,29.3
2022-08-07T12:58:59.016Z,28.6
2022-08-07T13:00:15.265Z,27.5
2022-08-07T13:01:31.506Z,28.3
2022-08-07T13:02:47.735Z,28.3
2022-08-07T13:04:03.991Z,28
2022-08-07T13:05:20.231Z,27.9
2022-08-07T13:06:36.458Z,31.5
2022-08-07T13:07:52.704Z,31.7
2022-08-07T13:09:08.938Z,28.3
2022-08-07T13:10:25.189Z,27.7
2022-08-07T13:11:41.431Z,28.4
2022-08-07T13:12:57.658Z,28
2022-08-07T13:14:13.894Z,28.3
2022-08-07T13:15:29.148Z,28
2022-08-07T13:16:45.393Z,27.4
2022-08-07T13:18:01.636Z,27.7
2022-08-07T13:19:17.868Z,27.7
2022-08-07T13:20:34.111Z,29.5
2022-08-07T13:21:50.359Z,27.4
2022-08-07T13:23:06.596Z,26.3
2022-08-07T13:24:22.843Z,25.6
2022-08-07T13:25:39.074Z,26
2022-08-07T13:26:55.311Z,26.9
2022-08-07T13:28:11.549Z,25.4
2022-08-07T13:29:27.797Z,24.6
2022-08-07T13:30:44.027Z,26.2
2022-08-07T13:31:59.284Z,26.3
2022-08-07T13:33:15.530Z,27.2
2022-08-07T13:34:31.777Z,26.8
2022-08-07T13:35:48.004Z,25.4
2022-08-07T13:37:04.247Z,26
2022-08-07T13:38:20.490Z,27.1
2022-08-07T13:39:36.724Z,29.1
2022-08-07T13:40:52.967Z,28.4
2022-08-07T13:42:09.204Z,29.6
2022-08-07T13:43:25.455Z,29.1
2022-08-07T13:44:41.694Z,28.2
2022-08-07T13:45:57.935Z,27.9
2022-08-07T13:47:14.165Z,26
2022-08-07T13:48:29.422Z,27.1
2022-08-07T13:49:45.669Z,25.9
2022-08-07T13:51:01.905Z,25.1
2022-08-07T13:52:18.149Z,25.3
2022-08-07T13:53:34.384Z,27.6
2022-08-07T13:54:50.635Z,26.8
2022-08-07T13:56:05.887Z,25.8
2022-08-07T13:57:22.132Z,26.5
2022-08-07T13:58:38.378Z,26.1
2022-08-07T13:59:54.618Z,26.8
2022-08-07T14:01:10.852Z,26.4
2022-08-07T14:02:27.092Z,29.9
2022-08-07T14:03:43.347Z,29.4
2022-08-07T14:04:59.568Z,28.8
2022-08-07T14:06:15.823Z,26.8
2022-08-07T14:07:32.046Z,25.6
2022-08-07T14:08:48.296Z,27.6
2022-08-07T14:10:04.535Z,25.9
2022-08-07T14:11:20.768Z,27.4
2022-08-07T14:12:36.036Z,26
2022-08-07T14:13:52.270Z,26.2
2022-08-07T14:15:08.503Z,26.5
2022-08-07T14:16:24.744Z,26.5
2022-08-07T14:17:40.997Z,27.4
2022-08-07T14:18:57.220Z,26.8
2022-08-07T14:20:13.459Z,26.1
2022-08-07T14:21:29.714Z,27.8
2022-08-07T14:22:45.940Z,27.9
2022-08-07T14:24:02.184Z,29
2022-08-07T14:25:18.424Z,25.3
2022-08-07T14:26:34.680Z,25.6
2022-08-07T14:27:50.917Z,25.9
2022-08-07T14:29:06.156Z,25.6
2022-08-07T14:30:22.406Z,25.1
2022-08-07T14:31:38.638Z,24.6
2022-08-07T14:32:54.893Z,25.6
2022-08-07T14:34:11.126Z,25.6
2022-08-07T14:35:27.370Z,26
2022-08-07T14:36:43.613Z,27
2022-08-07T14:37:59.849Z,27.9
2022-08-07T14:39:16.082Z,25.6
2022-08-07T14:40:32.340Z,24.9
2022-08-07T14:41:48.559Z,25.5
2022-08-07T14:43:04.815Z,25.3
2022-08-07T14:44:21.047Z,25.4
2022-08-07T14:45:36.309Z,26.1
2022-08-07T14:46:52.535Z,26.2
2022-08-07T14:48:08.775Z,26.4
2022-08-07T14:49:25.031Z,27.1
2022-08-07T14:50:41.255Z,27.7
2022-08-07T14:51:57.509Z,26.6
2022-08-07T14:53:13.741Z,28.2
2022-08-07T14:54:29.992Z,27.4
2022-08-07T14:55:46.217Z,26.5
2022-08-07T14:57:02.467Z,25.5
2022-08-07T14:58:18.710Z,26.2
2022-08-07T14:59:34.940Z,26.6
2022-08-07T15:00:51.181Z,26.2
2022-08-07T15:02:06.444Z,25.5
2022-08-07T15:03:22.671Z,25.3
2022-08-07T15:04:38.906Z,27.7
2022-08-07T15:05:55.147Z,25.4
2022-08-07T15:07:11.397Z,26
2022-08-07T15:08:27.635Z,25.3
2022-08-07T15:09:43.867Z,26.1
2022-08-07T15:11:00.115Z,27.1
2022-08-07T15:12:16.362Z,26.3
2022-08-07T15:13:32.586Z,26.9
2022-08-07T15:14:48.836Z,26.5
2022-08-07T15:16:05.066Z,27.3
2022-08-07T15:17:21.317Z,25.2
2022-08-07T15:18:36.564Z,24.6
2022-08-07T15:19:52.800Z,25.5
2022-08-07T15:21:09.042Z,25.7
2022-08-07T15:22:25.296Z,26.5
2022-08-07T15:23:41.518Z,24.9
2022-08-07T15:24:57.775Z,26.1
2022-08-07T15:26:14.011Z,26.5
2022-08-07T15:27:30.252Z,27.3
2022-08-07T15:28:46.497Z,25.4
2022-08-07T15:30:02.726Z,24.4
2022-08-07T15:31:18.955Z,24.6
2022-08-07T15:32:35.194Z,25.6
2022-08-07T15:33:51.453Z,25.9
2022-08-07T15:35:06.709Z,26
2022-08-07T15:36:22.943Z,25.1
2022-08-07T15:37:39.172Z,25.2
2022-08-07T15:38:55.425Z,25
2022-08-07T15:40:11.662Z,25.5
2022-08-07T15:41:27.000Z,24.7
2022-08-07T15:42:44.142Z,25.7
2022-08-07T15:44:00.364Z,25.5
2022-08-07T15:45:16.620Z,24.2
2022-08-07T15:46:32.845Z,26.2
2022-08-07T15:47:49.082Z,26
2022-08-07T15:49:05.324Z,25.6
2022-08-07T15:50:21.563Z,25.6
2022-08-07T15:51:36.828Z,25.1
2022-08-07T15:52:53.064Z,26.9
2022-08-07T15:54:09.297Z,24.9
2022-08-07T15:55:25.546Z,25.5
2022-08-07T15:56:41.791Z,25.5
2022-08-07T15:57:58.018Z,26.5
2022-08-07T15:59:14.271Z,25.1
2022-08-07T16:00:30.506Z,26
2022-08-07T16:01:46.744Z,25.7
2022-08-07T16:03:02.990Z,26.5
2022-08-07T16:04:19.221Z,26.1
2022-08-07T16:05:35.468Z,27.2
2022-08-07T16:06:51.707Z,25
2022-08-07T16:08:06.948Z,25
2022-08-07T16:09:23.192Z,25
2022-08-07T16:10:39.438Z,26
2022-08-07T16:11:55.672Z,27.3
2022-08-07T16:13:11.905Z,25.6
2022-08-07T16:14:28.145Z,25.3
2022-08-07T16:15:44.402Z,24.9
2022-08-07T16:17:00.641Z,26.5
2022-08-07T16:18:16.869Z,24.8
2022-08-07T16:19:33.112Z,24.9
2022-08-07T16:20:49.347Z,24.5
2022-08-07T16:22:05.591Z,24.2
2022-08-07T16:23:21.834Z,24.4
2022-08-07T16:24:37.098Z,27.3
2022-08-07T16:25:53.328Z,25.9
2022-08-07T16:27:09.572Z,26.6
2022-08-07T16:28:25.793Z,25.5
2022-08-07T16:29:42.038Z,25.6
2022-08-07T16:30:58.272Z,24.7
2022-08-07T16:32:14.518Z,24.9
2022-08-07T16:33:30.764Z,25.4
2022-08-07T16:34:46.994Z,25.6
2022-08-07T16:36:03.239Z,26
2022-08-07T16:37:19.474Z,27.1
2022-08-07T16:38:35.719Z,27.4
2022-08-07T16:39:51.959Z,26.3
2022-08-07T16:41:07.213Z,27.1
2022-08-07T16:42:23.453Z,26.8
2022-08-07T16:43:39.691Z,26.6
2022-08-07T16:44:55.936Z,26.4
2022-08-07T16:46:12.179Z,25.6
2022-08-07T16:47:28.408Z,25.3
2022-08-07T16:48:44.651Z,25.7
2022-08-07T16:50:00.895Z,25.5
2022-08-07T16:51:17.131Z,25.5
2022-08-07T16:53:49.598Z,25.1
2022-08-07T16:55:05.840Z,26.3
2022-08-07T16:56:22.079Z,26.5
2022-08-07T16:57:37.353Z,25.6
2022-08-07T16:58:53.574Z,25.2
2022-08-07T17:00:09.809Z,25.4
2022-08-07T17:01:26.051Z,24.5
2022-08-07T17:02:42.299Z,24.9
2022-08-07T17:03:58.534Z,25.9
2022-08-07T17:05:14.777Z,25.8
2022-08-07T17:06:31.018Z,26.2